sensor_id;sensor_type;location;lat;lon;timestamp;pressure;altitude;pressure_sealevel;temperature;humidity
31717;BME280;18301;51.076;17.046;2024-03-25T00:02:22;98627.50;;;7.24;76.62
31717;BME280;18301;51.076;17.046;2024-03-25T00:07:22;98620.25;;;7.14;76.82
31717;BME280;18301;51.076;17.046;2024-03-25T00:12:23;98617.97;;;7.10;77.95
31717;BME280;18301;51.076;17.046;2024-03-25T00:17:24;98616.38;;;7.07;79.44
31717;BME280;18301;51.076;17.046;2024-03-25T00:22:24;98612.03;;;7.06;79.12
31717;BME280;18301;51.076;17.046;2024-03-25T00:27:26;98609.69;;;6.92;80.11
31717;BME280;18301;51.076;17.046;2024-03-25T00:32:26;98613.94;;;6.95;79.71
31717;BME280;18301;51.076;17.046;2024-03-25T00:37:27;98611.06;;;6.86;79.40
31717;BME280;18301;51.076;17.046;2024-03-25T00:42:28;98624.34;;;6.88;79.81
31717;BME280;18301;51.076;17.046;2024-03-25T00:47:28;98628.69;;;7.10;81.46
31717;BME280;18301;51.076;17.046;2024-03-25T00:52:29;98625.41;;;6.76;84.02
31717;BME280;18301;51.076;17.046;2024-03-25T00:57:29;98636.03;;;6.56;83.59
31717;BME280;18301;51.076;17.046;2024-03-25T01:02:30;98640.44;;;6.46;85.85
31717;BME280;18301;51.076;17.046;2024-03-25T01:07:31;98626.16;;;6.57;84.05
31717;BME280;18301;51.076;17.046;2024-03-25T01:12:32;98612.28;;;6.52;84.93
31717;BME280;18301;51.076;17.046;2024-03-25T01:17:32;98606.91;;;6.73;83.69
31717;BME280;18301;51.076;17.046;2024-03-25T01:22:33;98607.19;;;6.69;84.21
31717;BME280;18301;51.076;17.046;2024-03-25T01:27:34;98592.97;;;6.79;84.68
31717;BME280;18301;51.076;17.046;2024-03-25T01:32:35;98594.44;;;6.92;85.16
31717;BME280;18301;51.076;17.046;2024-03-25T01:37:36;98594.19;;;6.96;85.16
31717;BME280;18301;51.076;17.046;2024-03-25T01:42:37;98585.97;;;6.87;85.05
31717;BME280;18301;51.076;17.046;2024-03-25T01:47:38;98588.19;;;6.82;85.94
31717;BME280;18301;51.076;17.046;2024-03-25T01:52:40;98583.25;;;6.78;87.27
31717;BME280;18301;51.076;17.046;2024-03-25T01:57:42;98590.63;;;6.64;87.74
31717;BME280;18301;51.076;17.046;2024-03-25T02:02:43;98580.66;;;6.66;87.90
31717;BME280;18301;51.076;17.046;2024-03-25T02:07:48;98571.63;;;6.67;88.26
31717;BME280;18301;51.076;17.046;2024-03-25T02:12:49;98578.56;;;6.49;90.31
31717;BME280;18301;51.076;17.046;2024-03-25T02:17:50;98587.38;;;6.40;89.45
31717;BME280;18301;51.076;17.046;2024-03-25T02:22:51;98587.13;;;6.43;90.50
31717;BME280;18301;51.076;17.046;2024-03-25T02:27:52;98586.22;;;6.33;91.87
31717;BME280;18301;51.076;17.046;2024-03-25T02:32:52;98577.94;;;6.36;90.85
31717;BME280;18301;51.076;17.046;2024-03-25T02:37:54;98585.72;;;6.39;92.62
31717;BME280;18301;51.076;17.046;2024-03-25T02:42:55;98581.25;;;6.49;92.56
31717;BME280;18301;51.076;17.046;2024-03-25T02:47:55;98576.53;;;6.62;90.73
31717;BME280;18301;51.076;17.046;2024-03-25T02:52:56;98579.13;;;6.74;90.07
31717;BME280;18301;51.076;17.046;2024-03-25T02:57:56;98573.06;;;6.72;90.55
31717;BME280;18301;51.076;17.046;2024-03-25T03:02:57;98572.81;;;6.75;90.31
31717;BME280;18301;51.076;17.046;2024-03-25T03:07:58;98576.06;;;6.78;90.13
31717;BME280;18301;51.076;17.046;2024-03-25T03:12:58;98585.94;;;6.78;89.57
31717;BME280;18301;51.076;17.046;2024-03-25T03:17:59;98590.31;;;6.79;89.54
31717;BME280;18301;51.076;17.046;2024-03-25T03:22:59;98582.25;;;6.79;89.13
31717;BME280;18301;51.076;17.046;2024-03-25T03:28:00;98583.94;;;6.80;89.12
31717;BME280;18301;51.076;17.046;2024-03-25T03:33:01;98592.25;;;6.77;89.00
31717;BME280;18301;51.076;17.046;2024-03-25T03:38:01;98592.28;;;6.86;88.79
31717;BME280;18301;51.076;17.046;2024-03-25T03:43:02;98602.22;;;6.65;88.91
31717;BME280;18301;51.076;17.046;2024-03-25T03:48:03;98617.91;;;6.69;90.65
31717;BME280;18301;51.076;17.046;2024-03-25T03:53:04;98613.91;;;6.43;92.68
31717;BME280;18301;51.076;17.046;2024-03-25T03:58:05;98617.91;;;6.49;91.59
31717;BME280;18301;51.076;17.046;2024-03-25T04:03:05;98615.63;;;6.44;92.03
31717;BME280;18301;51.076;17.046;2024-03-25T04:08:09;98610.97;;;6.46;91.13
31717;BME280;18301;51.076;17.046;2024-03-25T04:13:10;98601.88;;;6.58;89.71
31717;BME280;18301;51.076;17.046;2024-03-25T04:18:14;98606.41;;;6.58;89.70
31717;BME280;18301;51.076;17.046;2024-03-25T04:23:14;98610.47;;;6.52;90.17
31717;BME280;18301;51.076;17.046;2024-03-25T04:28:15;98602.72;;;6.59;90.58
31717;BME280;18301;51.076;17.046;2024-03-25T04:33:16;98624.38;;;6.46;90.92
31717;BME280;18301;51.076;17.046;2024-03-25T04:38:16;98618.69;;;6.60;90.93
31717;BME280;18301;51.076;17.046;2024-03-25T04:43:17;98611.03;;;6.77;90.94
31717;BME280;18301;51.076;17.046;2024-03-25T04:48:17;98618.38;;;6.54;91.73
31717;BME280;18301;51.076;17.046;2024-03-25T04:53:18;98630.66;;;6.56;91.14
31717;BME280;18301;51.076;17.046;2024-03-25T04:58:19;98634.84;;;6.49;92.59
31717;BME280;18301;51.076;17.046;2024-03-25T05:03:20;98640.13;;;6.60;91.39
31717;BME280;18301;51.076;17.046;2024-03-25T05:08:21;98635.41;;;6.74;91.21
31717;BME280;18301;51.076;17.046;2024-03-25T05:13:22;98644.81;;;6.68;91.33
31717;BME280;18301;51.076;17.046;2024-03-25T05:18:22;98646.81;;;6.66;91.67
31717;BME280;18301;51.076;17.046;2024-03-25T05:23:23;98647.59;;;6.78;90.74
31717;BME280;18301;51.076;17.046;2024-03-25T05:28:24;98653.91;;;6.77;91.03
31717;BME280;18301;51.076;17.046;2024-03-25T05:33:25;98651.56;;;6.83;91.09
31717;BME280;18301;51.076;17.046;2024-03-25T05:38:29;98657.84;;;6.73;91.97
31717;BME280;18301;51.076;17.046;2024-03-25T05:43:30;98661.97;;;7.07;90.67
31717;BME280;18301;51.076;17.046;2024-03-25T05:48:30;98658.19;;;7.10;90.15
31717;BME280;18301;51.076;17.046;2024-03-25T05:53:31;98686.06;;;6.77;89.97
31717;BME280;18301;51.076;17.046;2024-03-25T05:58:32;98694.22;;;6.65;90.83
31717;BME280;18301;51.076;17.046;2024-03-25T06:03:33;98700.41;;;6.66;91.31
31717;BME280;18301;51.076;17.046;2024-03-25T06:08:33;98700.34;;;6.56;91.00
31717;BME280;18301;51.076;17.046;2024-03-25T06:13:34;98708.81;;;6.61;91.09
31717;BME280;18301;51.076;17.046;2024-03-25T06:18:35;98712.72;;;6.68;89.55
31717;BME280;18301;51.076;17.046;2024-03-25T06:23:35;98736.38;;;6.84;88.28
31717;BME280;18301;51.076;17.046;2024-03-25T06:28:36;98741.94;;;6.39;89.09
31717;BME280;18301;51.076;17.046;2024-03-25T06:33:37;98741.44;;;6.02;92.64
31717;BME280;18301;51.076;17.046;2024-03-25T06:38:56;98747.50;;;5.82;94.39
31717;BME280;18301;51.076;17.046;2024-03-25T06:43:57;98762.84;;;5.91;94.92
31717;BME280;18301;51.076;17.046;2024-03-25T06:48:58;98770.66;;;5.83;96.30
31717;BME280;18301;51.076;17.046;2024-03-25T06:53:59;98779.41;;;5.96;95.09
31717;BME280;18301;51.076;17.046;2024-03-25T06:59:00;98788.88;;;6.22;93.43
31717;BME280;18301;51.076;17.046;2024-03-25T07:04:00;98785.91;;;6.37;93.48
31717;BME280;18301;51.076;17.046;2024-03-25T07:09:01;98789.06;;;6.42;94.14
31717;BME280;18301;51.076;17.046;2024-03-25T07:14:02;98801.81;;;6.82;92.70
31717;BME280;18301;51.076;17.046;2024-03-25T07:19:02;98797.72;;;6.78;93.39
31717;BME280;18301;51.076;17.046;2024-03-25T07:24:04;98799.03;;;7.04;92.45
31717;BME280;18301;51.076;17.046;2024-03-25T07:29:04;98811.59;;;7.25;91.57
31717;BME280;18301;51.076;17.046;2024-03-25T07:34:05;98815.41;;;7.22;91.67
31717;BME280;18301;51.076;17.046;2024-03-25T07:39:06;98823.25;;;6.93;93.57
31717;BME280;18301;51.076;17.046;2024-03-25T07:44:06;98832.47;;;7.00;93.33
31717;BME280;18301;51.076;17.046;2024-03-25T07:49:07;98841.06;;;7.15;91.74
31717;BME280;18301;51.076;17.046;2024-03-25T07:54:08;98851.84;;;7.25;90.17
31717;BME280;18301;51.076;17.046;2024-03-25T07:59:10;98859.94;;;7.13;92.48
31717;BME280;18301;51.076;17.046;2024-03-25T08:04:11;98859.75;;;7.26;92.03
31717;BME280;18301;51.076;17.046;2024-03-25T08:09:12;98866.75;;;7.59;90.80
31717;BME280;18301;51.076;17.046;2024-03-25T08:14:14;98874.13;;;7.57;90.92
31717;BME280;18301;51.076;17.046;2024-03-25T08:19:14;98883.78;;;7.28;92.12
31717;BME280;18301;51.076;17.046;2024-03-25T08:24:15;98875.53;;;7.20;92.12
31717;BME280;18301;51.076;17.046;2024-03-25T08:29:16;98888.94;;;7.20;92.13
31717;BME280;18301;51.076;17.046;2024-03-25T08:34:16;98889.28;;;7.47;91.04
31717;BME280;18301;51.076;17.046;2024-03-25T08:39:17;98897.41;;;7.36;91.47
31717;BME280;18301;51.076;17.046;2024-03-25T08:44:18;98893.50;;;7.08;92.27
31717;BME280;18301;51.076;17.046;2024-03-25T08:49:18;98900.75;;;6.96;93.91
31717;BME280;18301;51.076;17.046;2024-03-25T08:54:19;98910.47;;;7.08;93.09
31717;BME280;18301;51.076;17.046;2024-03-25T08:59:20;98915.91;;;7.18;94.06
31717;BME280;18301;51.076;17.046;2024-03-25T09:04:20;98922.72;;;6.90;95.84
31717;BME280;18301;51.076;17.046;2024-03-25T09:09:21;98931.78;;;6.99;93.48
31717;BME280;18301;51.076;17.046;2024-03-25T09:14:40;98930.69;;;7.12;93.85
31717;BME280;18301;51.076;17.046;2024-03-25T09:19:41;98942.94;;;6.83;95.85
31717;BME280;18301;51.076;17.046;2024-03-25T09:24:41;98949.28;;;6.93;94.95
31717;BME280;18301;51.076;17.046;2024-03-25T09:29:42;98962.69;;;6.93;94.92
31717;BME280;18301;51.076;17.046;2024-03-25T09:34:42;98962.94;;;6.67;98.23
31717;BME280;18301;51.076;17.046;2024-03-25T09:39:44;98952.88;;;7.14;95.66
31717;BME280;18301;51.076;17.046;2024-03-25T09:44:45;98979.94;;;7.11;97.74
31717;BME280;18301;51.076;17.046;2024-03-25T09:49:46;98976.50;;;7.74;94.14
31717;BME280;18301;51.076;17.046;2024-03-25T09:54:47;98970.16;;;7.75;95.19
31717;BME280;18301;51.076;17.046;2024-03-25T09:59:48;98978.25;;;8.47;93.33
31717;BME280;18301;51.076;17.046;2024-03-25T10:04:49;98999.81;;;7.94;93.26
31717;BME280;18301;51.076;17.046;2024-03-25T10:09:50;98987.78;;;7.68;94.47
31717;BME280;18301;51.076;17.046;2024-03-25T10:14:51;98999.44;;;7.78;92.74
31717;BME280;18301;51.076;17.046;2024-03-25T10:19:54;98999.56;;;7.44;96.27
31717;BME280;18301;51.076;17.046;2024-03-25T10:24:55;99009.66;;;7.20;97.46
31717;BME280;18301;51.076;17.046;2024-03-25T10:29:56;99005.19;;;7.41;94.99
31717;BME280;18301;51.076;17.046;2024-03-25T10:34:56;99015.03;;;7.20;95.98
31717;BME280;18301;51.076;17.046;2024-03-25T10:40:00;99021.03;;;7.44;96.09
31717;BME280;18301;51.076;17.046;2024-03-25T10:45:01;99009.53;;;7.21;98.44
31717;BME280;18301;51.076;17.046;2024-03-25T10:50:08;99026.06;;;7.37;98.63
31717;BME280;18301;51.076;17.046;2024-03-25T10:55:10;99020.00;;;7.68;96.47
31717;BME280;18301;51.076;17.046;2024-03-25T11:00:12;99021.72;;;8.11;96.75
31717;BME280;18301;51.076;17.046;2024-03-25T11:05:15;99020.22;;;8.39;93.60
31717;BME280;18301;51.076;17.046;2024-03-25T11:10:16;99030.38;;;8.35;94.41
31717;BME280;18301;51.076;17.046;2024-03-25T11:15:17;99028.81;;;8.53;90.61
31717;BME280;18301;51.076;17.046;2024-03-25T11:20:18;99033.06;;;8.35;90.42
31717;BME280;18301;51.076;17.046;2024-03-25T11:25:21;99034.13;;;8.44;92.14
31717;BME280;18301;51.076;17.046;2024-03-25T11:30:22;99038.00;;;8.91;90.50
31717;BME280;18301;51.076;17.046;2024-03-25T11:35:27;99022.28;;;9.37;88.02
31717;BME280;18301;51.076;17.046;2024-03-25T11:40:28;99042.91;;;9.27;85.10
31717;BME280;18301;51.076;17.046;2024-03-25T11:45:29;99046.81;;;8.93;84.80
31717;BME280;18301;51.076;17.046;2024-03-25T11:50:30;99044.34;;;8.81;86.27
31717;BME280;18301;51.076;17.046;2024-03-25T11:55:31;99049.38;;;8.43;86.49
31717;BME280;18301;51.076;17.046;2024-03-25T12:00:31;99056.13;;;8.38;87.25
31717;BME280;18301;51.076;17.046;2024-03-25T12:05:32;99052.34;;;8.71;86.32
31717;BME280;18301;51.076;17.046;2024-03-25T12:10:33;99049.25;;;8.66;86.48
31717;BME280;18301;51.076;17.046;2024-03-25T12:15:53;99048.69;;;8.41;88.41
31717;BME280;18301;51.076;17.046;2024-03-25T12:20:56;99040.25;;;8.56;87.08
31717;BME280;18301;51.076;17.046;2024-03-25T12:26:02;99043.03;;;8.44;86.83
31717;BME280;18301;51.076;17.046;2024-03-25T12:31:07;99043.16;;;9.04;84.24
31717;BME280;18301;51.076;17.046;2024-03-25T12:36:08;99042.34;;;9.23;83.72
31717;BME280;18301;51.076;17.046;2024-03-25T12:41:10;99035.91;;;9.55;84.13
31717;BME280;18301;51.076;17.046;2024-03-25T12:46:11;99050.03;;;9.37;81.77
31717;BME280;18301;51.076;17.046;2024-03-25T12:51:14;99048.72;;;9.12;81.25
31717;BME280;18301;51.076;17.046;2024-03-25T12:56:15;99065.84;;;9.11;81.70
31717;BME280;18301;51.076;17.046;2024-03-25T13:01:16;99069.22;;;9.04;79.70
31717;BME280;18301;51.076;17.046;2024-03-25T13:06:16;99060.88;;;9.07;81.77
31717;BME280;18301;51.076;17.046;2024-03-25T13:11:17;99063.25;;;9.00;83.82
31717;BME280;18301;51.076;17.046;2024-03-25T13:16:17;99045.69;;;9.56;80.43
31717;BME280;18301;51.076;17.046;2024-03-25T13:21:18;99059.75;;;9.88;79.64
31717;BME280;18301;51.076;17.046;2024-03-25T13:26:19;99048.66;;;10.11;78.33
31717;BME280;18301;51.076;17.046;2024-03-25T13:31:19;99042.41;;;10.40;75.73
31717;BME280;18301;51.076;17.046;2024-03-25T13:36:20;99047.41;;;10.81;75.57
31717;BME280;18301;51.076;17.046;2024-03-25T13:41:21;99054.88;;;10.50;71.47
31717;BME280;18301;51.076;17.046;2024-03-25T13:46:24;99049.22;;;10.44;73.49
31717;BME280;18301;51.076;17.046;2024-03-25T13:51:24;99055.19;;;10.18;75.67
31717;BME280;18301;51.076;17.046;2024-03-25T13:56:25;99057.19;;;10.16;71.54
31717;BME280;18301;51.076;17.046;2024-03-25T14:01:26;99053.78;;;10.14;73.35
31717;BME280;18301;51.076;17.046;2024-03-25T14:06:26;99060.00;;;10.05;73.13
31717;BME280;18301;51.076;17.046;2024-03-25T14:11:27;99077.03;;;9.76;73.81
31717;BME280;18301;51.076;17.046;2024-03-25T14:16:28;99113.59;;;9.69;76.57
31717;BME280;18301;51.076;17.046;2024-03-25T14:21:29;99109.72;;;8.50;79.62
31717;BME280;18301;51.076;17.046;2024-03-25T14:26:30;99108.28;;;8.14;85.33
31717;BME280;18301;51.076;17.046;2024-03-25T14:31:30;99113.47;;;8.38;84.67
31717;BME280;18301;51.076;17.046;2024-03-25T14:36:31;99107.56;;;8.65;84.90
31717;BME280;18301;51.076;17.046;2024-03-25T14:41:39;99106.22;;;8.81;82.51
31717;BME280;18301;51.076;17.046;2024-03-25T14:46:39;99100.72;;;8.61;83.92
31717;BME280;18301;51.076;17.046;2024-03-25T14:51:40;99106.81;;;8.84;83.72
31717;BME280;18301;51.076;17.046;2024-03-25T14:56:41;99103.31;;;8.93;83.29
31717;BME280;18301;51.076;17.046;2024-03-25T15:01:42;99111.91;;;8.87;84.28
31717;BME280;18301;51.076;17.046;2024-03-25T15:06:42;99103.56;;;9.21;82.98
31717;BME280;18301;51.076;17.046;2024-03-25T15:11:43;99110.59;;;9.53;79.73
31717;BME280;18301;51.076;17.046;2024-03-25T15:16:44;99101.38;;;9.55;79.94
31717;BME280;18301;51.076;17.046;2024-03-25T15:21:46;99113.50;;;9.30;79.17
31717;BME280;18301;51.076;17.046;2024-03-25T15:26:47;99116.69;;;9.55;78.49
31717;BME280;18301;51.076;17.046;2024-03-25T15:31:48;99119.44;;;9.24;80.67
31717;BME280;18301;51.076;17.046;2024-03-25T15:36:48;99126.88;;;9.11;80.22
31717;BME280;18301;51.076;17.046;2024-03-25T15:41:50;99122.56;;;9.29;78.93
31717;BME280;18301;51.076;17.046;2024-03-25T15:46:50;99140.97;;;9.24;76.74
31717;BME280;18301;51.076;17.046;2024-03-25T15:51:51;99146.19;;;8.95;77.66
31717;BME280;18301;51.076;17.046;2024-03-25T15:56:52;99143.19;;;8.88;76.47
31717;BME280;18301;51.076;17.046;2024-03-25T16:01:53;99144.31;;;8.65;77.78
31717;BME280;18301;51.076;17.046;2024-03-25T16:06:54;99150.16;;;8.91;77.19
31717;BME280;18301;51.076;17.046;2024-03-25T16:11:55;99149.00;;;8.84;78.20
31717;BME280;18301;51.076;17.046;2024-03-25T16:16:55;99159.06;;;8.91;77.79
31717;BME280;18301;51.076;17.046;2024-03-25T16:21:56;99163.47;;;8.92;77.23
31717;BME280;18301;51.076;17.046;2024-03-25T16:26:56;99166.44;;;8.36;79.12
31717;BME280;18301;51.076;17.046;2024-03-25T16:31:58;99165.88;;;8.33;79.66
31717;BME280;18301;51.076;17.046;2024-03-25T16:36:59;99170.13;;;8.35;79.84
31717;BME280;18301;51.076;17.046;2024-03-25T16:42:00;99171.41;;;8.20;80.21
31717;BME280;18301;51.076;17.046;2024-03-25T16:47:01;99175.69;;;8.22;80.68
31717;BME280;18301;51.076;17.046;2024-03-25T16:52:02;99185.31;;;8.25;80.46
31717;BME280;18301;51.076;17.046;2024-03-25T16:57:03;99189.41;;;8.08;82.01
31717;BME280;18301;51.076;17.046;2024-03-25T17:02:04;99197.31;;;8.21;81.13
31717;BME280;18301;51.076;17.046;2024-03-25T17:07:04;99205.03;;;8.46;80.30
31717;BME280;18301;51.076;17.046;2024-03-25T17:12:06;99214.09;;;8.34;78.76
31717;BME280;18301;51.076;17.046;2024-03-25T17:17:06;99209.53;;;8.14;78.84
31717;BME280;18301;51.076;17.046;2024-03-25T17:22:07;99218.28;;;7.83;78.96
31717;BME280;18301;51.076;17.046;2024-03-25T17:27:08;99224.06;;;7.68;79.23
31717;BME280;18301;51.076;17.046;2024-03-25T17:32:08;99236.03;;;7.64;79.89
31717;BME280;18301;51.076;17.046;2024-03-25T17:37:09;99230.16;;;7.58;80.10
31717;BME280;18301;51.076;17.046;2024-03-25T17:42:09;99227.72;;;7.67;80.02
31717;BME280;18301;51.076;17.046;2024-03-25T17:47:11;99235.16;;;7.52;81.09
31717;BME280;18301;51.076;17.046;2024-03-25T17:52:11;99234.06;;;7.54;80.81
31717;BME280;18301;51.076;17.046;2024-03-25T17:57:12;99238.31;;;7.57;81.27
31717;BME280;18301;51.076;17.046;2024-03-25T18:02:13;99242.84;;;7.68;81.02
31717;BME280;18301;51.076;17.046;2024-03-25T18:07:13;99245.78;;;7.76;81.26
31717;BME280;18301;51.076;17.046;2024-03-25T18:12:14;99246.00;;;7.84;81.22
31717;BME280;18301;51.076;17.046;2024-03-25T18:17:15;99238.19;;;7.92;81.23
31717;BME280;18301;51.076;17.046;2024-03-25T18:22:16;99238.31;;;7.79;81.30
31717;BME280;18301;51.076;17.046;2024-03-25T18:27:16;99245.38;;;7.80;81.22
31717;BME280;18301;51.076;17.046;2024-03-25T18:32:17;99248.91;;;7.81;81.62
31717;BME280;18301;51.076;17.046;2024-03-25T18:37:18;99259.56;;;7.82;81.16
31717;BME280;18301;51.076;17.046;2024-03-25T18:42:19;99258.22;;;7.77;81.32
31717;BME280;18301;51.076;17.046;2024-03-25T18:47:20;99264.19;;;7.69;81.99
31717;BME280;18301;51.076;17.046;2024-03-25T18:52:20;99268.56;;;7.48;82.90
31717;BME280;18301;51.076;17.046;2024-03-25T18:57:21;99269.44;;;7.37;82.86
31717;BME280;18301;51.076;17.046;2024-03-25T19:02:21;99274.06;;;7.35;83.41
31717;BME280;18301;51.076;17.046;2024-03-25T19:07:22;99275.03;;;7.34;83.71
31717;BME280;18301;51.076;17.046;2024-03-25T19:12:23;99275.03;;;7.34;84.03
31717;BME280;18301;51.076;17.046;2024-03-25T19:17:23;99281.63;;;7.30;84.18
31717;BME280;18301;51.076;17.046;2024-03-25T19:22:24;99270.63;;;7.22;84.40
31717;BME280;18301;51.076;17.046;2024-03-25T19:27:25;99267.69;;;7.13;84.65
31717;BME280;18301;51.076;17.046;2024-03-25T19:32:25;99269.66;;;7.11;84.77
31717;BME280;18301;51.076;17.046;2024-03-25T19:37:26;99278.91;;;7.07;85.32
31717;BME280;18301;51.076;17.046;2024-03-25T19:42:27;99274.25;;;6.98;85.34
31717;BME280;18301;51.076;17.046;2024-03-25T19:47:27;99275.41;;;6.83;85.60
31717;BME280;18301;51.076;17.046;2024-03-25T19:52:28;99277.84;;;6.75;85.92
31717;BME280;18301;51.076;17.046;2024-03-25T19:57:28;99282.78;;;6.68;86.29
31717;BME280;18301;51.076;17.046;2024-03-25T20:02:29;99275.56;;;6.57;86.30
31717;BME280;18301;51.076;17.046;2024-03-25T20:07:30;99281.16;;;6.54;86.51
31717;BME280;18301;51.076;17.046;2024-03-25T20:12:31;99271.34;;;6.42;86.84
31717;BME280;18301;51.076;17.046;2024-03-25T20:17:31;99290.69;;;6.34;86.86
31717;BME280;18301;51.076;17.046;2024-03-25T20:22:32;99294.16;;;6.23;87.20
31717;BME280;18301;51.076;17.046;2024-03-25T20:27:33;99290.94;;;6.18;87.59
31717;BME280;18301;51.076;17.046;2024-03-25T20:32:33;99306.97;;;6.07;87.12
31717;BME280;18301;51.076;17.046;2024-03-25T20:37:34;99304.84;;;5.99;87.26
31717;BME280;18301;51.076;17.046;2024-03-25T20:42:35;99311.56;;;5.92;88.34
31717;BME280;18301;51.076;17.046;2024-03-25T20:47:35;99300.97;;;5.91;88.71
31717;BME280;18301;51.076;17.046;2024-03-25T20:52:36;99308.81;;;5.94;88.29
31717;BME280;18301;51.076;17.046;2024-03-25T20:57:37;99312.00;;;5.86;88.79
31717;BME280;18301;51.076;17.046;2024-03-25T21:02:37;99303.66;;;5.78;89.29
31717;BME280;18301;51.076;17.046;2024-03-25T21:07:38;99304.22;;;5.70;89.51
31717;BME280;18301;51.076;17.046;2024-03-25T21:12:38;99303.91;;;5.62;89.66
31717;BME280;18301;51.076;17.046;2024-03-25T21:17:39;99305.19;;;5.69;89.65
31717;BME280;18301;51.076;17.046;2024-03-25T21:22:40;99304.00;;;5.73;89.30
31717;BME280;18301;51.076;17.046;2024-03-25T21:27:41;99303.47;;;5.68;89.20
31717;BME280;18301;51.076;17.046;2024-03-25T21:32:41;99299.22;;;5.53;89.31
31717;BME280;18301;51.076;17.046;2024-03-25T21:37:42;99305.19;;;5.57;89.74
31717;BME280;18301;51.076;17.046;2024-03-25T21:42:43;99299.53;;;5.61;89.58
31717;BME280;18301;51.076;17.046;2024-03-25T21:47:43;99307.34;;;5.64;89.52
31717;BME280;18301;51.076;17.046;2024-03-25T21:52:44;99302.84;;;5.65;89.41
31717;BME280;18301;51.076;17.046;2024-03-25T21:57:44;99285.06;;;5.51;89.48
31717;BME280;18301;51.076;17.046;2024-03-25T22:02:48;99304.97;;;5.60;89.46
31717;BME280;18301;51.076;17.046;2024-03-25T22:07:48;99297.50;;;5.52;89.37
31717;BME280;18301;51.076;17.046;2024-03-25T22:12:49;99306.03;;;5.57;89.49
31717;BME280;18301;51.076;17.046;2024-03-25T22:17:49;99300.91;;;5.54;89.10
31717;BME280;18301;51.076;17.046;2024-03-25T22:22:51;99296.53;;;5.53;89.58
31717;BME280;18301;51.076;17.046;2024-03-25T22:27:51;99295.13;;;5.47;88.80
31717;BME280;18301;51.076;17.046;2024-03-25T22:32:52;99296.63;;;5.39;88.99
31717;BME280;18301;51.076;17.046;2024-03-25T22:37:53;99289.25;;;5.29;89.09
31717;BME280;18301;51.076;17.046;2024-03-25T22:42:53;99289.72;;;5.23;88.59
31717;BME280;18301;51.076;17.046;2024-03-25T22:47:54;99300.94;;;5.16;89.10
31717;BME280;18301;51.076;17.046;2024-03-25T22:52:54;99301.97;;;5.13;88.67
31717;BME280;18301;51.076;17.046;2024-03-25T22:57:55;99300.94;;;5.16;88.34
31717;BME280;18301;51.076;17.046;2024-03-25T23:02:56;99301.13;;;5.13;88.41
31717;BME280;18301;51.076;17.046;2024-03-25T23:07:56;99296.13;;;5.08;88.29
31717;BME280;18301;51.076;17.046;2024-03-25T23:12:57;99304.78;;;4.99;88.64
31717;BME280;18301;51.076;17.046;2024-03-25T23:17:58;99315.13;;;4.91;88.06
31717;BME280;18301;51.076;17.046;2024-03-25T23:22:58;99317.34;;;4.84;88.71
31717;BME280;18301;51.076;17.046;2024-03-25T23:27:59;99312.72;;;4.73;88.52
31717;BME280;18301;51.076;17.046;2024-03-25T23:33:00;99319.38;;;4.80;89.18
31717;BME280;18301;51.076;17.046;2024-03-25T23:38:01;99322.47;;;4.74;88.68
31717;BME280;18301;51.076;17.046;2024-03-25T23:43:02;99321.75;;;4.58;88.54
31717;BME280;18301;51.076;17.046;2024-03-25T23:48:03;99313.44;;;4.63;89.58
31717;BME280;18301;51.076;17.046;2024-03-25T23:53:04;99323.28;;;4.62;88.99
31717;BME280;18301;51.076;17.046;2024-03-25T23:58:04;99321.75;;;4.58;89.15
